クイアバ の空港の天気 - METARとTAF

クイアバ空港 ( SBCY / CGB ) - ブラジル マットグロッソ州クイアバ
飛行場実況気象(Metar)
観測時間12/01 20:00 AMST (12/01 23:00 UTC)
風向・風速南南東 5m/s
視程10km以上
天気現象
全天の4割程度の雲 雲底高度 610m
少しの雲 雲底高度 760m
全天の8割程度の雲 雲底高度 2440m
気温29℃
湿度66%
気圧1009hPa
METARSBCY 012300Z 15010KT 9999 SCT020 FEW025TCU BKN080 29/22 Q1009
過去の天気等 Google飛行場航空写真 Wunderground天気予報

過去48時間のMETAR

飛行場予報(TAF)
発表時間: 12/01 18:00 AMST (12/01 21:00 UTC)
予報対象時間: 1日21時 AMST ~ 2日21時 AMST
風向・風速北北東 3m/s
視程10km以上
全天の4割程度の雲 雲底高度 610m
2日1時 AMST ~ 2日3時 AMST に徐々に
風向・風速北西 3m/s
2日11時 AMST ~ 2日13時 AMST に徐々に
風向・風速北西 5m/s
全天の4割程度の雲 雲底高度 610m
少しの塔状積雲 雲底高度 910m
TAF SBCY 012100Z 0200/0224 03005KT 9999 SCT020 TX37/0217Z TN29/0223Z
BECMG 0204/0206 32005KT
BECMG 0214/0216 32010KT SCT020 FEW030TCU RMK PGY